sensor_id;sensor_type;location;lat;lon;timestamp;P1;durP1;ratioP1;P2;durP2;ratioP2
14326;SDS011;7247;53.330;-1.180;2022-08-19T00:00:47;4.00;;;2.60;;
14326;SDS011;7247;53.330;-1.180;2022-08-19T00:03:17;2.80;;;2.50;;
14326;SDS011;7247;53.330;-1.180;2022-08-19T00:05:44;4.17;;;2.57;;
14326;SDS011;7247;53.330;-1.180;2022-08-19T00:08:10;3.03;;;2.67;;
14326;SDS011;7247;53.330;-1.180;2022-08-19T00:10:37;3.17;;;2.67;;
14326;SDS011;7247;53.330;-1.180;2022-08-19T00:13:04;3.77;;;3.00;;
14326;SDS011;7247;53.330;-1.180;2022-08-19T00:15:31;4.33;;;3.47;;
14326;SDS011;7247;53.330;-1.180;2022-08-19T00:17:57;5.13;;;3.93;;
14326;SDS011;7247;53.330;-1.180;2022-08-19T00:20:25;4.60;;;4.20;;
14326;SDS011;7247;53.330;-1.180;2022-08-19T00:22:53;5.60;;;4.47;;
14326;SDS011;7247;53.330;-1.180;2022-08-19T00:25:19;6.00;;;5.40;;
14326;SDS011;7247;53.330;-1.180;2022-08-19T00:27:46;5.47;;;4.97;;
14326;SDS011;7247;53.330;-1.180;2022-08-19T00:30:13;6.23;;;5.50;;
14326;SDS011;7247;53.330;-1.180;2022-08-19T00:32:39;5.47;;;4.97;;
14326;SDS011;7247;53.330;-1.180;2022-08-19T00:35:06;6.50;;;5.10;;
14326;SDS011;7247;53.330;-1.180;2022-08-19T00:37:35;6.80;;;5.07;;
14326;SDS011;7247;53.330;-1.180;2022-08-19T00:40:03;5.43;;;4.93;;
14326;SDS011;7247;53.330;-1.180;2022-08-19T00:42:30;5.60;;;5.10;;
14326;SDS011;7247;53.330;-1.180;2022-08-19T00:44:57;7.27;;;5.10;;
14326;SDS011;7247;53.330;-1.180;2022-08-19T00:47:24;5.17;;;4.73;;
14326;SDS011;7247;53.330;-1.180;2022-08-19T00:49:52;5.30;;;4.80;;
14326;SDS011;7247;53.330;-1.180;2022-08-19T00:52:21;5.63;;;5.10;;
14326;SDS011;7247;53.330;-1.180;2022-08-19T00:54:50;5.50;;;5.00;;
14326;SDS011;7247;53.330;-1.180;2022-08-19T00:57:18;5.07;;;4.57;;
14326;SDS011;7247;53.330;-1.180;2022-08-19T00:59:48;5.40;;;4.90;;
14326;SDS011;7247;53.330;-1.180;2022-08-19T01:02:19;4.50;;;4.10;;
14326;SDS011;7247;53.330;-1.180;2022-08-19T01:04:46;6.10;;;4.40;;
14326;SDS011;7247;53.330;-1.180;2022-08-19T01:07:12;4.60;;;4.20;;
14326;SDS011;7247;53.330;-1.180;2022-08-19T01:09:39;6.70;;;3.73;;
14326;SDS011;7247;53.330;-1.180;2022-08-19T01:12:07;6.00;;;3.07;;
14326;SDS011;7247;53.330;-1.180;2022-08-19T01:14:34;6.07;;;2.80;;
14326;SDS011;7247;53.330;-1.180;2022-08-19T01:17:01;5.00;;;2.60;;
14326;SDS011;7247;53.330;-1.180;2022-08-19T01:19:28;4.50;;;2.60;;
14326;SDS011;7247;53.330;-1.180;2022-08-19T01:21:57;10.70;;;3.27;;
14326;SDS011;7247;53.330;-1.180;2022-08-19T01:24:27;8.93;;;3.17;;
14326;SDS011;7247;53.330;-1.180;2022-08-19T01:26:54;8.53;;;2.70;;
14326;SDS011;7247;53.330;-1.180;2022-08-19T01:29:20;7.73;;;2.70;;
14326;SDS011;7247;53.330;-1.180;2022-08-19T01:31:47;8.03;;;3.20;;
14326;SDS011;7247;53.330;-1.180;2022-08-19T01:34:14;8.87;;;3.20;;
14326;SDS011;7247;53.330;-1.180;2022-08-19T01:36:41;8.67;;;2.50;;
14326;SDS011;7247;53.330;-1.180;2022-08-19T01:39:13;11.00;;;2.97;;
14326;SDS011;7247;53.330;-1.180;2022-08-19T01:41:43;8.37;;;2.70;;
14326;SDS011;7247;53.330;-1.180;2022-08-19T01:44:09;8.63;;;2.90;;
14326;SDS011;7247;53.330;-1.180;2022-08-19T01:46:36;10.83;;;2.97;;
14326;SDS011;7247;53.330;-1.180;2022-08-19T01:49:03;8.87;;;2.90;;
14326;SDS011;7247;53.330;-1.180;2022-08-19T01:54:16;8.10;;;2.83;;
14326;SDS011;7247;53.330;-1.180;2022-08-19T01:56:44;11.30;;;2.73;;
14326;SDS011;7247;53.330;-1.180;2022-08-19T01:59:11;7.73;;;2.90;;
14326;SDS011;7247;53.330;-1.180;2022-08-19T02:01:40;7.07;;;2.90;;
14326;SDS011;7247;53.330;-1.180;2022-08-19T02:04:06;11.67;;;3.00;;
14326;SDS011;7247;53.330;-1.180;2022-08-19T02:06:33;11.83;;;3.03;;
14326;SDS011;7247;53.330;-1.180;2022-08-19T02:09:00;10.07;;;3.10;;
14326;SDS011;7247;53.330;-1.180;2022-08-19T02:11:28;9.93;;;2.90;;
14326;SDS011;7247;53.330;-1.180;2022-08-19T02:13:57;11.90;;;3.03;;
14326;SDS011;7247;53.330;-1.180;2022-08-19T02:16:24;10.33;;;3.17;;
14326;SDS011;7247;53.330;-1.180;2022-08-19T02:18:50;7.23;;;2.90;;
14326;SDS011;7247;53.330;-1.180;2022-08-19T02:21:18;11.63;;;3.37;;
14326;SDS011;7247;53.330;-1.180;2022-08-19T02:23:44;9.43;;;2.97;;
14326;SDS011;7247;53.330;-1.180;2022-08-19T02:26:11;9.10;;;3.27;;
14326;SDS011;7247;53.330;-1.180;2022-08-19T02:28:38;14.27;;;3.47;;
14326;SDS011;7247;53.330;-1.180;2022-08-19T02:31:09;10.00;;;3.10;;
14326;SDS011;7247;53.330;-1.180;2022-08-19T02:33:36;8.33;;;2.77;;
14326;SDS011;7247;53.330;-1.180;2022-08-19T02:36:03;14.57;;;3.00;;
14326;SDS011;7247;53.330;-1.180;2022-08-19T02:38:30;7.00;;;3.03;;
14326;SDS011;7247;53.330;-1.180;2022-08-19T02:40:58;11.47;;;3.40;;
14326;SDS011;7247;53.330;-1.180;2022-08-19T02:46:15;10.30;;;3.20;;
14326;SDS011;7247;53.330;-1.180;2022-08-19T02:48:45;8.63;;;3.03;;
14326;SDS011;7247;53.330;-1.180;2022-08-19T02:51:15;10.37;;;3.10;;
14326;SDS011;7247;53.330;-1.180;2022-08-19T02:53:42;10.13;;;3.10;;
14326;SDS011;7247;53.330;-1.180;2022-08-19T02:56:09;12.37;;;3.43;;
14326;SDS011;7247;53.330;-1.180;2022-08-19T02:58:35;10.40;;;3.40;;
14326;SDS011;7247;53.330;-1.180;2022-08-19T03:01:02;10.37;;;3.17;;
14326;SDS011;7247;53.330;-1.180;2022-08-19T03:03:30;14.47;;;3.33;;
14326;SDS011;7247;53.330;-1.180;2022-08-19T03:06:06;11.97;;;3.40;;
14326;SDS011;7247;53.330;-1.180;2022-08-19T03:08:34;12.63;;;3.23;;
14326;SDS011;7247;53.330;-1.180;2022-08-19T03:11:00;12.20;;;3.10;;
14326;SDS011;7247;53.330;-1.180;2022-08-19T03:13:28;11.60;;;3.10;;
14326;SDS011;7247;53.330;-1.180;2022-08-19T03:15:55;8.13;;;3.03;;
14326;SDS011;7247;53.330;-1.180;2022-08-19T03:18:21;9.97;;;3.10;;
14326;SDS011;7247;53.330;-1.180;2022-08-19T03:20:50;10.20;;;3.20;;
14326;SDS011;7247;53.330;-1.180;2022-08-19T03:23:20;9.67;;;3.43;;
14326;SDS011;7247;53.330;-1.180;2022-08-19T03:25:47;10.73;;;3.07;;
14326;SDS011;7247;53.330;-1.180;2022-08-19T03:28:15;13.60;;;3.80;;
14326;SDS011;7247;53.330;-1.180;2022-08-19T03:30:42;12.07;;;3.27;;
14326;SDS011;7247;53.330;-1.180;2022-08-19T03:33:23;13.20;;;3.83;;
14326;SDS011;7247;53.330;-1.180;2022-08-19T03:36:00;14.17;;;3.50;;
14326;SDS011;7247;53.330;-1.180;2022-08-19T03:38:27;15.17;;;3.43;;
14326;SDS011;7247;53.330;-1.180;2022-08-19T03:40:54;10.83;;;3.57;;
14326;SDS011;7247;53.330;-1.180;2022-08-19T03:43:21;10.20;;;3.40;;
14326;SDS011;7247;53.330;-1.180;2022-08-19T03:45:47;12.17;;;3.53;;
14326;SDS011;7247;53.330;-1.180;2022-08-19T03:48:16;11.53;;;3.60;;
14326;SDS011;7247;53.330;-1.180;2022-08-19T03:50:42;15.20;;;3.70;;
14326;SDS011;7247;53.330;-1.180;2022-08-19T03:53:12;12.43;;;3.53;;
14326;SDS011;7247;53.330;-1.180;2022-08-19T03:55:39;12.77;;;3.40;;
14326;SDS011;7247;53.330;-1.180;2022-08-19T03:58:06;12.60;;;2.80;;
14326;SDS011;7247;53.330;-1.180;2022-08-19T04:00:33;13.17;;;3.33;;
14326;SDS011;7247;53.330;-1.180;2022-08-19T04:03:01;10.23;;;2.80;;
14326;SDS011;7247;53.330;-1.180;2022-08-19T04:05:28;15.33;;;3.67;;
14326;SDS011;7247;53.330;-1.180;2022-08-19T04:07:55;16.30;;;3.23;;
14326;SDS011;7247;53.330;-1.180;2022-08-19T04:10:25;15.23;;;3.30;;
14326;SDS011;7247;53.330;-1.180;2022-08-19T04:15:38;15.33;;;3.40;;
14326;SDS011;7247;53.330;-1.180;2022-08-19T04:18:06;13.33;;;3.27;;
14326;SDS011;7247;53.330;-1.180;2022-08-19T04:20:33;10.77;;;3.07;;
14326;SDS011;7247;53.330;-1.180;2022-08-19T04:23:06;8.80;;;3.00;;
14326;SDS011;7247;53.330;-1.180;2022-08-19T04:25:36;13.27;;;3.43;;
14326;SDS011;7247;53.330;-1.180;2022-08-19T04:28:03;15.20;;;3.43;;
14326;SDS011;7247;53.330;-1.180;2022-08-19T04:30:29;15.77;;;3.63;;
14326;SDS011;7247;53.330;-1.180;2022-08-19T04:32:56;17.80;;;4.00;;
14326;SDS011;7247;53.330;-1.180;2022-08-19T04:35:23;9.37;;;3.60;;
14326;SDS011;7247;53.330;-1.180;2022-08-19T04:37:49;12.17;;;3.57;;
14326;SDS011;7247;53.330;-1.180;2022-08-19T04:40:16;19.27;;;3.73;;
14326;SDS011;7247;53.330;-1.180;2022-08-19T04:43:05;15.97;;;3.47;;
14326;SDS011;7247;53.330;-1.180;2022-08-19T04:45:32;12.80;;;3.60;;
14326;SDS011;7247;53.330;-1.180;2022-08-19T04:47:58;16.33;;;3.83;;
14326;SDS011;7247;53.330;-1.180;2022-08-19T04:50:26;14.50;;;3.67;;
14326;SDS011;7247;53.330;-1.180;2022-08-19T04:52:53;15.83;;;3.33;;
14326;SDS011;7247;53.330;-1.180;2022-08-19T04:55:21;14.07;;;3.13;;
14326;SDS011;7247;53.330;-1.180;2022-08-19T04:57:48;13.13;;;3.30;;
14326;SDS011;7247;53.330;-1.180;2022-08-19T05:00:17;16.67;;;3.90;;
14326;SDS011;7247;53.330;-1.180;2022-08-19T05:02:45;14.93;;;3.67;;
14326;SDS011;7247;53.330;-1.180;2022-08-19T05:05:14;14.97;;;3.43;;
14326;SDS011;7247;53.330;-1.180;2022-08-19T05:07:40;16.47;;;4.13;;
14326;SDS011;7247;53.330;-1.180;2022-08-19T05:10:07;15.20;;;3.77;;
14326;SDS011;7247;53.330;-1.180;2022-08-19T05:12:35;16.07;;;3.50;;
14326;SDS011;7247;53.330;-1.180;2022-08-19T05:15:02;12.47;;;3.70;;
14326;SDS011;7247;53.330;-1.180;2022-08-19T05:17:30;14.23;;;4.03;;
14326;SDS011;7247;53.330;-1.180;2022-08-19T05:19:57;15.20;;;3.80;;
14326;SDS011;7247;53.330;-1.180;2022-08-19T05:22:43;14.03;;;3.47;;
14326;SDS011;7247;53.330;-1.180;2022-08-19T05:25:11;12.63;;;3.77;;
14326;SDS011;7247;53.330;-1.180;2022-08-19T05:27:38;14.57;;;3.47;;
14326;SDS011;7247;53.330;-1.180;2022-08-19T05:30:05;15.30;;;3.33;;
14326;SDS011;7247;53.330;-1.180;2022-08-19T05:35:19;12.10;;;4.10;;
14326;SDS011;7247;53.330;-1.180;2022-08-19T05:37:45;12.53;;;3.77;;
14326;SDS011;7247;53.330;-1.180;2022-08-19T05:40:12;22.53;;;4.33;;
14326;SDS011;7247;53.330;-1.180;2022-08-19T05:42:38;13.23;;;3.60;;
14326;SDS011;7247;53.330;-1.180;2022-08-19T05:45:06;15.67;;;3.60;;
14326;SDS011;7247;53.330;-1.180;2022-08-19T05:47:32;15.53;;;3.90;;
14326;SDS011;7247;53.330;-1.180;2022-08-19T05:50:00;16.40;;;4.10;;
14326;SDS011;7247;53.330;-1.180;2022-08-19T05:52:29;19.67;;;4.37;;
14326;SDS011;7247;53.330;-1.180;2022-08-19T05:54:55;16.87;;;3.97;;
14326;SDS011;7247;53.330;-1.180;2022-08-19T05:57:22;14.43;;;3.80;;
14326;SDS011;7247;53.330;-1.180;2022-08-19T05:59:49;16.70;;;3.90;;
14326;SDS011;7247;53.330;-1.180;2022-08-19T06:02:18;16.47;;;3.70;;
14326;SDS011;7247;53.330;-1.180;2022-08-19T06:04:45;18.53;;;4.17;;
14326;SDS011;7247;53.330;-1.180;2022-08-19T06:07:11;16.17;;;3.80;;
14326;SDS011;7247;53.330;-1.180;2022-08-19T06:09:39;16.03;;;3.50;;
14326;SDS011;7247;53.330;-1.180;2022-08-19T06:12:07;17.37;;;3.87;;
14326;SDS011;7247;53.330;-1.180;2022-08-19T06:14:34;16.97;;;3.80;;
14326;SDS011;7247;53.330;-1.180;2022-08-19T06:17:01;16.83;;;3.80;;
14326;SDS011;7247;53.330;-1.180;2022-08-19T06:19:28;19.07;;;4.60;;
14326;SDS011;7247;53.330;-1.180;2022-08-19T06:24:58;17.13;;;4.10;;
14326;SDS011;7247;53.330;-1.180;2022-08-19T06:27:25;15.40;;;3.70;;
14326;SDS011;7247;53.330;-1.180;2022-08-19T06:29:52;13.43;;;3.70;;
14326;SDS011;7247;53.330;-1.180;2022-08-19T06:32:20;17.77;;;3.93;;
14326;SDS011;7247;53.330;-1.180;2022-08-19T06:34:46;14.10;;;3.47;;
14326;SDS011;7247;53.330;-1.180;2022-08-19T06:37:13;13.77;;;3.50;;
14326;SDS011;7247;53.330;-1.180;2022-08-19T06:39:41;19.13;;;4.00;;
14326;SDS011;7247;53.330;-1.180;2022-08-19T06:42:10;13.33;;;3.40;;
14326;SDS011;7247;53.330;-1.180;2022-08-19T06:44:38;17.87;;;3.43;;
14326;SDS011;7247;53.330;-1.180;2022-08-19T06:47:06;16.13;;;3.63;;
14326;SDS011;7247;53.330;-1.180;2022-08-19T06:49:35;9.63;;;3.00;;
14326;SDS011;7247;53.330;-1.180;2022-08-19T06:52:03;11.13;;;3.70;;
14326;SDS011;7247;53.330;-1.180;2022-08-19T06:54:30;13.97;;;4.17;;
14326;SDS011;7247;53.330;-1.180;2022-08-19T06:56:57;13.13;;;3.20;;
14326;SDS011;7247;53.330;-1.180;2022-08-19T06:59:26;15.50;;;3.67;;
14326;SDS011;7247;53.330;-1.180;2022-08-19T07:01:56;15.67;;;3.57;;
14326;SDS011;7247;53.330;-1.180;2022-08-19T07:04:24;16.70;;;3.50;;
14326;SDS011;7247;53.330;-1.180;2022-08-19T07:06:56;14.80;;;3.90;;
14326;SDS011;7247;53.330;-1.180;2022-08-19T07:09:23;14.37;;;3.00;;
14326;SDS011;7247;53.330;-1.180;2022-08-19T07:11:51;12.33;;;3.60;;
14326;SDS011;7247;53.330;-1.180;2022-08-19T07:14:21;9.93;;;3.37;;
14326;SDS011;7247;53.330;-1.180;2022-08-19T07:16:49;9.87;;;3.20;;
14326;SDS011;7247;53.330;-1.180;2022-08-19T07:19:16;12.70;;;3.43;;
14326;SDS011;7247;53.330;-1.180;2022-08-19T07:21:44;14.77;;;3.50;;
14326;SDS011;7247;53.330;-1.180;2022-08-19T07:24:11;10.17;;;3.13;;
14326;SDS011;7247;53.330;-1.180;2022-08-19T07:26:39;11.10;;;3.03;;
14326;SDS011;7247;53.330;-1.180;2022-08-19T07:29:06;12.50;;;3.40;;
14326;SDS011;7247;53.330;-1.180;2022-08-19T07:31:34;13.03;;;3.07;;
14326;SDS011;7247;53.330;-1.180;2022-08-19T07:34:03;20.23;;;3.63;;
14326;SDS011;7247;53.330;-1.180;2022-08-19T07:36:31;12.53;;;3.57;;
14326;SDS011;7247;53.330;-1.180;2022-08-19T07:38:59;14.50;;;3.73;;
14326;SDS011;7247;53.330;-1.180;2022-08-19T07:41:28;11.73;;;3.20;;
14326;SDS011;7247;53.330;-1.180;2022-08-19T07:43:56;12.27;;;3.10;;
14326;SDS011;7247;53.330;-1.180;2022-08-19T07:46:23;11.37;;;3.23;;
14326;SDS011;7247;53.330;-1.180;2022-08-19T07:48:50;13.80;;;3.43;;
14326;SDS011;7247;53.330;-1.180;2022-08-19T07:51:20;10.07;;;3.30;;
14326;SDS011;7247;53.330;-1.180;2022-08-19T07:53:47;13.93;;;3.43;;
14326;SDS011;7247;53.330;-1.180;2022-08-19T07:56:15;12.83;;;3.10;;
14326;SDS011;7247;53.330;-1.180;2022-08-19T07:58:42;13.00;;;3.13;;
14326;SDS011;7247;53.330;-1.180;2022-08-19T08:01:10;14.40;;;4.13;;
14326;SDS011;7247;53.330;-1.180;2022-08-19T08:03:37;13.13;;;3.50;;
14326;SDS011;7247;53.330;-1.180;2022-08-19T08:06:23;12.47;;;2.80;;
14326;SDS011;7247;53.330;-1.180;2022-08-19T08:09:08;13.27;;;3.40;;
14326;SDS011;7247;53.330;-1.180;2022-08-19T08:11:37;14.53;;;3.47;;
14326;SDS011;7247;53.330;-1.180;2022-08-19T08:14:04;14.93;;;3.93;;
14326;SDS011;7247;53.330;-1.180;2022-08-19T08:16:32;14.30;;;3.40;;
14326;SDS011;7247;53.330;-1.180;2022-08-19T08:18:59;13.37;;;3.57;;
14326;SDS011;7247;53.330;-1.180;2022-08-19T08:21:29;13.80;;;3.67;;
14326;SDS011;7247;53.330;-1.180;2022-08-19T08:23:56;10.20;;;2.93;;
14326;SDS011;7247;53.330;-1.180;2022-08-19T08:26:22;11.27;;;3.40;;
14326;SDS011;7247;53.330;-1.180;2022-08-19T08:28:50;10.90;;;3.20;;
14326;SDS011;7247;53.330;-1.180;2022-08-19T08:31:16;11.63;;;2.83;;
14326;SDS011;7247;53.330;-1.180;2022-08-19T08:33:43;12.67;;;2.90;;
14326;SDS011;7247;53.330;-1.180;2022-08-19T08:36:10;12.50;;;3.60;;
14326;SDS011;7247;53.330;-1.180;2022-08-19T08:38:40;10.50;;;2.97;;
14326;SDS011;7247;53.330;-1.180;2022-08-19T08:41:09;9.10;;;2.30;;
14326;SDS011;7247;53.330;-1.180;2022-08-19T08:43:40;10.97;;;2.83;;
14326;SDS011;7247;53.330;-1.180;2022-08-19T08:46:09;9.43;;;3.03;;
14326;SDS011;7247;53.330;-1.180;2022-08-19T08:48:38;11.37;;;2.97;;
14326;SDS011;7247;53.330;-1.180;2022-08-19T08:51:07;12.90;;;3.13;;
14326;SDS011;7247;53.330;-1.180;2022-08-19T08:53:35;12.73;;;3.47;;
14326;SDS011;7247;53.330;-1.180;2022-08-19T08:56:05;6.43;;;2.63;;
14326;SDS011;7247;53.330;-1.180;2022-08-19T08:58:36;11.70;;;3.30;;
14326;SDS011;7247;53.330;-1.180;2022-08-19T09:01:07;10.13;;;2.97;;
14326;SDS011;7247;53.330;-1.180;2022-08-19T09:03:36;10.90;;;2.80;;
14326;SDS011;7247;53.330;-1.180;2022-08-19T09:06:03;9.03;;;2.70;;
14326;SDS011;7247;53.330;-1.180;2022-08-19T09:08:34;9.13;;;2.80;;
14326;SDS011;7247;53.330;-1.180;2022-08-19T09:11:06;10.83;;;2.73;;
14326;SDS011;7247;53.330;-1.180;2022-08-19T09:13:34;11.73;;;3.00;;
14326;SDS011;7247;53.330;-1.180;2022-08-19T09:16:03;9.10;;;2.40;;
14326;SDS011;7247;53.330;-1.180;2022-08-19T09:18:38;9.20;;;2.57;;
14326;SDS011;7247;53.330;-1.180;2022-08-19T09:21:05;7.27;;;2.53;;
14326;SDS011;7247;53.330;-1.180;2022-08-19T09:23:32;10.10;;;2.80;;
14326;SDS011;7247;53.330;-1.180;2022-08-19T09:25:59;9.97;;;2.87;;
14326;SDS011;7247;53.330;-1.180;2022-08-19T09:28:27;12.07;;;2.80;;
14326;SDS011;7247;53.330;-1.180;2022-08-19T09:30:54;10.33;;;3.23;;
14326;SDS011;7247;53.330;-1.180;2022-08-19T09:36:10;8.10;;;2.10;;
14326;SDS011;7247;53.330;-1.180;2022-08-19T09:38:37;8.23;;;2.43;;
14326;SDS011;7247;53.330;-1.180;2022-08-19T09:41:06;10.27;;;2.47;;
14326;SDS011;7247;53.330;-1.180;2022-08-19T09:43:35;6.47;;;2.37;;
14326;SDS011;7247;53.330;-1.180;2022-08-19T09:46:02;8.20;;;2.70;;
14326;SDS011;7247;53.330;-1.180;2022-08-19T09:48:30;9.63;;;2.60;;
14326;SDS011;7247;53.330;-1.180;2022-08-19T09:51:01;8.70;;;2.93;;
14326;SDS011;7247;53.330;-1.180;2022-08-19T09:53:31;6.60;;;2.43;;
14326;SDS011;7247;53.330;-1.180;2022-08-19T09:55:57;8.20;;;2.47;;
14326;SDS011;7247;53.330;-1.180;2022-08-19T09:58:24;5.77;;;2.30;;
14326;SDS011;7247;53.330;-1.180;2022-08-19T10:00:54;9.27;;;2.67;;
14326;SDS011;7247;53.330;-1.180;2022-08-19T10:03:22;6.20;;;2.43;;
14326;SDS011;7247;53.330;-1.180;2022-08-19T10:05:49;8.00;;;2.43;;
14326;SDS011;7247;53.330;-1.180;2022-08-19T10:08:15;8.07;;;2.23;;
14326;SDS011;7247;53.330;-1.180;2022-08-19T10:10:41;7.30;;;2.33;;
14326;SDS011;7247;53.330;-1.180;2022-08-19T10:16:01;10.87;;;2.70;;
14326;SDS011;7247;53.330;-1.180;2022-08-19T10:18:28;9.30;;;2.40;;
14326;SDS011;7247;53.330;-1.180;2022-08-19T10:21:02;8.33;;;2.90;;
14326;SDS011;7247;53.330;-1.180;2022-08-19T10:23:30;7.43;;;2.43;;
14326;SDS011;7247;53.330;-1.180;2022-08-19T10:25:59;10.67;;;2.47;;
14326;SDS011;7247;53.330;-1.180;2022-08-19T10:28:25;8.93;;;2.43;;
14326;SDS011;7247;53.330;-1.180;2022-08-19T10:30:52;6.07;;;2.30;;
14326;SDS011;7247;53.330;-1.180;2022-08-19T10:33:21;9.83;;;2.83;;
14326;SDS011;7247;53.330;-1.180;2022-08-19T10:35:49;7.67;;;2.40;;
14326;SDS011;7247;53.330;-1.180;2022-08-19T10:38:24;9.97;;;2.83;;
14326;SDS011;7247;53.330;-1.180;2022-08-19T10:40:51;6.80;;;2.77;;
14326;SDS011;7247;53.330;-1.180;2022-08-19T10:43:18;12.23;;;2.97;;
14326;SDS011;7247;53.330;-1.180;2022-08-19T10:45:48;9.40;;;2.53;;
14326;SDS011;7247;53.330;-1.180;2022-08-19T10:48:15;11.03;;;2.80;;
14326;SDS011;7247;53.330;-1.180;2022-08-19T10:50:43;7.97;;;2.47;;
14326;SDS011;7247;53.330;-1.180;2022-08-19T10:53:28;9.27;;;2.47;;
14326;SDS011;7247;53.330;-1.180;2022-08-19T10:55:55;10.37;;;2.83;;
14326;SDS011;7247;53.330;-1.180;2022-08-19T10:58:39;8.93;;;2.67;;
14326;SDS011;7247;53.330;-1.180;2022-08-19T11:01:06;6.23;;;2.27;;
14326;SDS011;7247;53.330;-1.180;2022-08-19T11:03:33;8.40;;;2.53;;
14326;SDS011;7247;53.330;-1.180;2022-08-19T11:06:01;10.70;;;3.40;;
14326;SDS011;7247;53.330;-1.180;2022-08-19T11:08:28;9.20;;;2.63;;
14326;SDS011;7247;53.330;-1.180;2022-08-19T11:10:58;12.27;;;2.93;;
14326;SDS011;7247;53.330;-1.180;2022-08-19T11:13:26;9.57;;;2.63;;
14326;SDS011;7247;53.330;-1.180;2022-08-19T11:15:57;13.97;;;3.40;;
14326;SDS011;7247;53.330;-1.180;2022-08-19T11:18:24;12.53;;;3.40;;
14326;SDS011;7247;53.330;-1.180;2022-08-19T11:20:51;10.63;;;3.00;;
14326;SDS011;7247;53.330;-1.180;2022-08-19T11:23:21;8.00;;;2.70;;
14326;SDS011;7247;53.330;-1.180;2022-08-19T11:25:47;6.93;;;2.47;;
14326;SDS011;7247;53.330;-1.180;2022-08-19T11:28:15;6.20;;;2.00;;
14326;SDS011;7247;53.330;-1.180;2022-08-19T11:30:41;8.63;;;2.30;;
14326;SDS011;7247;53.330;-1.180;2022-08-19T11:35:57;11.03;;;2.63;;
14326;SDS011;7247;53.330;-1.180;2022-08-19T11:38:26;11.87;;;3.27;;
14326;SDS011;7247;53.330;-1.180;2022-08-19T11:40:56;9.33;;;2.70;;
14326;SDS011;7247;53.330;-1.180;2022-08-19T11:45:53;8.67;;;2.50;;
14326;SDS011;7247;53.330;-1.180;2022-08-19T11:48:20;7.53;;;2.47;;
14326;SDS011;7247;53.330;-1.180;2022-08-19T11:50:47;7.53;;;2.90;;
14326;SDS011;7247;53.330;-1.180;2022-08-19T11:56:05;12.80;;;5.35;;
14326;SDS011;7247;53.330;-1.180;2022-08-19T11:58:32;7.47;;;2.53;;
14326;SDS011;7247;53.330;-1.180;2022-08-19T12:00:59;9.80;;;2.60;;
14326;SDS011;7247;53.330;-1.180;2022-08-19T12:03:26;5.60;;;2.23;;
14326;SDS011;7247;53.330;-1.180;2022-08-19T12:05:53;8.00;;;2.77;;
14326;SDS011;7247;53.330;-1.180;2022-08-19T12:08:20;9.50;;;3.23;;
14326;SDS011;7247;53.330;-1.180;2022-08-19T12:10:47;6.90;;;2.47;;
14326;SDS011;7247;53.330;-1.180;2022-08-19T12:13:15;7.70;;;2.63;;
14326;SDS011;7247;53.330;-1.180;2022-08-19T12:15:43;8.27;;;2.80;;
14326;SDS011;7247;53.330;-1.180;2022-08-19T12:18:10;6.03;;;2.00;;
14326;SDS011;7247;53.330;-1.180;2022-08-19T12:20:39;6.90;;;2.30;;
14326;SDS011;7247;53.330;-1.180;2022-08-19T12:23:08;5.60;;;1.90;;
14326;SDS011;7247;53.330;-1.180;2022-08-19T12:25:35;8.93;;;2.27;;
14326;SDS011;7247;53.330;-1.180;2022-08-19T12:28:03;7.20;;;2.47;;
14326;SDS011;7247;53.330;-1.180;2022-08-19T12:30:31;6.43;;;2.37;;
14326;SDS011;7247;53.330;-1.180;2022-08-19T12:32:59;4.80;;;2.20;;
14326;SDS011;7247;53.330;-1.180;2022-08-19T12:35:26;6.73;;;2.53;;
14326;SDS011;7247;53.330;-1.180;2022-08-19T12:37:53;6.60;;;2.33;;
14326;SDS011;7247;53.330;-1.180;2022-08-19T12:40:20;5.37;;;2.30;;
14326;SDS011;7247;53.330;-1.180;2022-08-19T12:42:47;5.43;;;2.20;;
14326;SDS011;7247;53.330;-1.180;2022-08-19T12:45:16;6.10;;;2.17;;
14326;SDS011;7247;53.330;-1.180;2022-08-19T12:47:44;4.47;;;1.87;;
14326;SDS011;7247;53.330;-1.180;2022-08-19T12:50:11;7.67;;;2.10;;
14326;SDS011;7247;53.330;-1.180;2022-08-19T12:52:38;4.60;;;2.03;;
14326;SDS011;7247;53.330;-1.180;2022-08-19T12:55:08;8.07;;;2.00;;
14326;SDS011;7247;53.330;-1.180;2022-08-19T12:57:35;6.60;;;2.07;;
14326;SDS011;7247;53.330;-1.180;2022-08-19T13:00:03;4.20;;;1.90;;
14326;SDS011;7247;53.330;-1.180;2022-08-19T13:02:32;6.93;;;2.20;;
14326;SDS011;7247;53.330;-1.180;2022-08-19T13:05:01;6.50;;;2.20;;
14326;SDS011;7247;53.330;-1.180;2022-08-19T13:07:28;5.60;;;1.60;;
14326;SDS011;7247;53.330;-1.180;2022-08-19T13:09:55;4.17;;;1.50;;
14326;SDS011;7247;53.330;-1.180;2022-08-19T13:12:24;5.53;;;1.80;;
14326;SDS011;7247;53.330;-1.180;2022-08-19T13:14:51;5.40;;;1.90;;
14326;SDS011;7247;53.330;-1.180;2022-08-19T13:17:18;7.20;;;2.27;;
14326;SDS011;7247;53.330;-1.180;2022-08-19T13:19:45;5.73;;;2.37;;
14326;SDS011;7247;53.330;-1.180;2022-08-19T13:22:13;4.70;;;2.10;;
14326;SDS011;7247;53.330;-1.180;2022-08-19T13:24:39;5.80;;;1.93;;
14326;SDS011;7247;53.330;-1.180;2022-08-19T13:27:06;5.53;;;2.13;;
14326;SDS011;7247;53.330;-1.180;2022-08-19T13:29:33;6.47;;;2.23;;
14326;SDS011;7247;53.330;-1.180;2022-08-19T13:32:18;4.65;;;1.90;;
14326;SDS011;7247;53.330;-1.180;2022-08-19T13:35:04;2.90;;;1.63;;
14326;SDS011;7247;53.330;-1.180;2022-08-19T13:37:33;5.63;;;1.60;;
14326;SDS011;7247;53.330;-1.180;2022-08-19T13:40:10;3.70;;;2.00;;
14326;SDS011;7247;53.330;-1.180;2022-08-19T13:42:39;2.05;;;1.20;;
14326;SDS011;7247;53.330;-1.180;2022-08-19T13:45:06;3.85;;;1.50;;
14326;SDS011;7247;53.330;-1.180;2022-08-19T13:47:32;2.80;;;1.47;;
14326;SDS011;7247;53.330;-1.180;2022-08-19T13:50:00;5.50;;;1.70;;
14326;SDS011;7247;53.330;-1.180;2022-08-19T13:52:29;2.93;;;1.47;;
14326;SDS011;7247;53.330;-1.180;2022-08-19T13:54:57;3.80;;;1.40;;
14326;SDS011;7247;53.330;-1.180;2022-08-19T13:57:24;4.07;;;1.37;;
14326;SDS011;7247;53.330;-1.180;2022-08-19T13:59:50;3.30;;;1.50;;
14326;SDS011;7247;53.330;-1.180;2022-08-19T14:02:19;3.13;;;1.63;;
14326;SDS011;7247;53.330;-1.180;2022-08-19T14:04:45;2.33;;;1.30;;
14326;SDS011;7247;53.330;-1.180;2022-08-19T14:07:12;4.53;;;1.97;;
14326;SDS011;7247;53.330;-1.180;2022-08-19T14:09:39;4.43;;;1.80;;
14326;SDS011;7247;53.330;-1.180;2022-08-19T14:12:07;5.27;;;1.80;;
14326;SDS011;7247;53.330;-1.180;2022-08-19T14:14:36;3.67;;;1.70;;
14326;SDS011;7247;53.330;-1.180;2022-08-19T14:17:05;5.50;;;1.73;;
14326;SDS011;7247;53.330;-1.180;2022-08-19T14:19:31;3.10;;;1.57;;
14326;SDS011;7247;53.330;-1.180;2022-08-19T14:21:59;3.27;;;1.60;;
14326;SDS011;7247;53.330;-1.180;2022-08-19T14:24:26;4.40;;;1.40;;
14326;SDS011;7247;53.330;-1.180;2022-08-19T14:26:52;2.50;;;1.23;;
14326;SDS011;7247;53.330;-1.180;2022-08-19T14:29:20;3.27;;;1.33;;
14326;SDS011;7247;53.330;-1.180;2022-08-19T14:31:46;4.07;;;1.47;;
14326;SDS011;7247;53.330;-1.180;2022-08-19T14:34:13;3.73;;;1.37;;
14326;SDS011;7247;53.330;-1.180;2022-08-19T14:36:39;1.80;;;1.13;;
14326;SDS011;7247;53.330;-1.180;2022-08-19T14:39:07;2.50;;;1.23;;
14326;SDS011;7247;53.330;-1.180;2022-08-19T14:41:34;3.10;;;1.50;;
14326;SDS011;7247;53.330;-1.180;2022-08-19T14:44:01;5.13;;;1.60;;
14326;SDS011;7247;53.330;-1.180;2022-08-19T14:46:29;4.07;;;1.30;;
14326;SDS011;7247;53.330;-1.180;2022-08-19T14:48:55;1.80;;;1.00;;
14326;SDS011;7247;53.330;-1.180;2022-08-19T14:51:24;3.57;;;1.30;;
14326;SDS011;7247;53.330;-1.180;2022-08-19T14:53:51;3.23;;;1.30;;
14326;SDS011;7247;53.330;-1.180;2022-08-19T14:56:18;2.87;;;1.30;;
14326;SDS011;7247;53.330;-1.180;2022-08-19T14:58:45;2.33;;;1.23;;
14326;SDS011;7247;53.330;-1.180;2022-08-19T15:01:13;2.73;;;1.13;;
14326;SDS011;7247;53.330;-1.180;2022-08-19T15:03:41;3.77;;;1.33;;
14326;SDS011;7247;53.330;-1.180;2022-08-19T15:06:08;3.17;;;1.30;;
14326;SDS011;7247;53.330;-1.180;2022-08-19T15:08:35;2.70;;;1.23;;
14326;SDS011;7247;53.330;-1.180;2022-08-19T15:11:06;6.20;;;1.20;;
14326;SDS011;7247;53.330;-1.180;2022-08-19T15:13:34;3.97;;;1.30;;